Time;durP1;ratioP1;P1;durP2;ratioP2;P2;SDS_P1;SDS_P2;PMS_P1;PMS_P2;Temp;Humidity;BMP_temperature;BMP_pressure;BME280_temperature;BME280_humidity;BME280_pressure;Samples;Min_cycle;Max_cycle;Signal;HPM_P1;HPM_P2
2022/05/04 00:01:52;;;;;;;;;;;;;;;5.18;100.00;101417.47;4954490;28;19999;-73
2022/05/04 00:04:17;;;;;;;;;;;;;;;5.12;100.00;101409.13;4988528;28;19929;-73
2022/05/04 00:06:42;;;;;;;7.53;3.27;;;;;;;5.12;100.00;101409.97;4970593;28;19993;-73
2022/05/04 00:09:07;;;;;;;10.97;4.07;;;;;;;5.04;100.00;101414.97;4969953;28;20034;-73
2022/05/04 00:11:33;;;;;;;13.70;3.60;;;;;;;4.96;100.00;101410.22;4987790;28;20030;-73
2022/05/04 00:13:58;;;;;;;13.33;4.17;;;;;;;4.90;100.00;101408.03;4987690;28;20483;-73
2022/05/04 00:16:24;;;;;;;14.93;5.00;;;;;;;4.92;100.00;101416.72;4970250;28;20538;-73
2022/05/04 00:18:49;;;;;;;15.50;4.20;;;;;;;4.88;100.00;101414.38;4970090;28;20104;-73
2022/05/04 00:21:14;;;;;;;15.23;3.60;;;;;;;4.89;100.00;101411.63;4987358;28;20025;-73
2022/05/04 00:23:40;;;;;;;12.50;3.83;;;;;;;4.88;100.00;101417.88;4987597;28;20034;-74
2022/05/04 00:26:05;;;;;;;14.57;3.90;;;;;;;4.83;100.00;101422.66;4987383;28;20104;-73
2022/05/04 00:28:31;;;;;;;22.77;5.07;;;;;;;4.86;100.00;101428.56;4969929;28;20039;-73
2022/05/04 00:30:56;;;;;;;15.05;4.13;;;;;;;4.79;100.00;101418.53;4953710;28;20022;-73
2022/05/04 00:33:22;;;;;;;17.83;3.93;;;;;;;4.84;100.00;101416.38;4969873;28;20052;-73
2022/05/04 00:35:47;;;;;;;15.63;3.70;;;;;;;4.73;100.00;101417.16;4970010;28;20033;-73
2022/05/04 00:38:12;;;;;;;15.47;4.93;;;;;;;4.75;100.00;101419.69;4987238;28;20364;-73
2022/05/04 00:40:38;;;;;;;17.20;4.40;;;;;;;4.73;100.00;101417.16;4953083;28;20369;-73
2022/05/04 00:43:03;;;;;;;13.60;4.27;;;;;;;4.64;100.00;101417.81;4986784;28;20042;-73
2022/05/04 00:45:29;;;;;;;19.43;4.57;;;;;;;4.60;100.00;101419.81;4987211;28;20038;-73
2022/05/04 00:47:54;;;;;;;19.17;4.10;;;;;;;4.57;100.00;101420.03;4969365;28;20093;-73
2022/05/04 00:50:20;;;;;;;13.97;4.50;;;;;;;4.57;100.00;101421.84;4987060;28;20627;-73
2022/05/04 00:52:48;;;;;;;18.40;7.07;;;;;;;4.63;100.00;101438.09;4969493;28;20034;-73
2022/05/04 00:55:18;;;;;;;10.45;4.07;;;;;;;4.61;100.00;101440.03;4953587;28;20113;-73
2022/05/04 01:00:29;;;;;;;13.35;3.85;;;;;;;4.54;100.00;101436.13;4969457;28;20035;-73
2022/05/04 01:02:54;;;;;;;14.18;4.75;;;;;;;4.52;100.00;101430.09;4986733;28;20084;-73
2022/05/04 01:05:20;;;;;;;15.32;4.30;;;;;;;4.54;100.00;101436.13;4968026;28;20076;-73
2022/05/04 01:07:47;;;;;;;15.45;3.83;;;;;;;4.49;100.00;101435.56;4975126;28;20085;-73
2022/05/04 01:10:13;;;;;;;17.58;4.50;;;;;;;4.43;100.00;101428.94;4969080;28;20125;-73
2022/05/04 01:13:05;;;;;;;18.75;4.07;;;;;;;4.41;100.00;101424.69;4969078;28;20030;-73
2022/05/04 01:15:30;;;;;;;15.73;4.07;;;;;;;4.34;100.00;101420.78;4963215;28;20079;-73
2022/05/04 01:17:56;;;;;;;17.63;5.17;;;;;;;4.33;100.00;101413.78;4964653;28;20480;-73
2022/05/04 01:20:24;;;;;;;11.30;4.33;;;;;;;4.31;100.00;101426.25;4986610;28;20089;-73
2022/05/04 01:22:50;;;;;;;16.45;3.85;;;;;;;4.25;100.00;101413.50;4951582;28;20027;-72
2022/05/04 01:25:15;;;;;;;16.38;3.97;;;;;;;4.23;100.00;101419.72;4986316;28;20459;-73
2022/05/04 01:27:41;;;;;;;13.88;4.65;;;;;;;4.17;100.00;101414.84;4986405;28;20026;-73
2022/05/04 01:30:07;;;;;;;16.20;4.15;;;;;;;4.17;100.00;101411.38;4968781;28;20121;-73
2022/05/04 01:32:33;;;;;;;18.60;6.43;;;;;;;4.10;100.00;101407.47;4986484;28;20114;-73
2022/05/04 01:34:59;;;;;;;15.43;4.50;;;;;;;4.11;100.00;101407.34;4986739;28;20050;-73
2022/05/04 01:37:25;;;;;;;19.27;5.90;;;;;;;4.08;100.00;101412.84;4969487;28;20277;-73
2022/05/04 01:39:51;;;;;;;15.95;4.28;;;;;;;4.06;100.00;101412.09;4952413;28;20026;-73
2022/05/04 01:42:16;;;;;;;16.13;4.28;;;;;;;4.08;100.00;101415.47;4968551;28;20061;-74
2022/05/04 01:44:44;;;;;;;16.83;4.95;;;;;;;4.03;100.00;101417.59;4969124;28;20507;-73
2022/05/04 01:47:11;;;;;;;22.05;5.57;;;;;;;4.03;100.00;101414.97;4969177;28;20403;-73
2022/05/04 01:49:37;;;;;;;13.50;4.05;;;;;;;4.01;100.00;101412.41;4968844;28;20038;-73
2022/05/04 01:52:03;;;;;;;14.65;3.97;;;;;;;4.01;100.00;101419.50;4986700;28;20022;-73
2022/05/04 01:54:28;;;;;;;13.30;4.25;;;;;;;3.97;100.00;101408.28;4973038;28;20038;-73
2022/05/04 01:56:54;;;;;;;10.65;4.15;;;;;;;3.97;100.00;101415.34;4988254;28;20137;-73
2022/05/04 01:59:20;;;;;;;15.25;4.10;;;;;;;3.98;100.00;101419.69;4955678;28;20377;-73
2022/05/04 02:01:46;;;;;;;10.48;3.78;;;;;;;4.00;100.00;101418.66;4972401;28;20026;-73
2022/05/04 02:04:13;;;;;;;14.57;5.43;;;;;;;3.95;100.00;101411.97;4970652;28;20042;-73
2022/05/04 02:06:38;;;;;;;;;;;;;;;3.88;100.00;101402.75;4990353;28;20034;-73
2022/05/04 02:09:04;;;;;;;9.38;3.97;;;;;;;3.96;100.00;101411.88;4969219;28;19921;-73
2022/05/04 02:11:32;;;;;;;;;;;;;;;3.96;100.00;101416.31;4986259;28;20033;-73
2022/05/04 02:13:59;;;;;;;9.45;3.47;;;;;;;3.93;100.00;101403.28;4972445;28;19914;-73
2022/05/04 02:16:24;;;;;;;13.52;3.13;;;;;;;3.89;100.00;101405.31;4990056;28;20033;-72
2022/05/04 02:18:49;;;;;;;10.13;3.45;;;;;;;3.83;100.00;101396.94;4971135;28;20031;-73
2022/05/04 02:21:16;;;;;;;16.13;4.13;;;;;;;3.81;100.00;101403.16;4953166;28;20035;-73
2022/05/04 02:23:41;;;;;;;9.43;3.70;;;;;;;3.76;100.00;101399.16;4983742;28;20031;-73
2022/05/04 02:26:06;;;;;;;15.90;3.90;;;;;;;3.75;100.00;101403.59;4993401;23;20050;-71
2022/05/04 02:28:32;;;;;;;15.00;4.53;;;;;;;3.74;100.00;101396.59;4977736;28;20323;-71
2022/05/04 02:30:57;;;;;;;17.27;5.33;;;;;;;3.73;100.00;101394.94;4980523;28;20037;-71
2022/05/04 02:33:22;;;;;;;11.17;3.67;;;;;;;3.69;100.00;101387.31;4968811;28;20041;-72
2022/05/04 02:38:32;;;;;;;19.33;5.53;;;;;;;3.65;100.00;101375.25;4981174;28;20035;-71
2022/05/04 02:40:57;;;;;;;13.37;3.67;;;;;;;3.65;100.00;101380.53;4980602;28;20473;-71
2022/05/04 02:43:23;;;;;;;7.67;3.77;;;;;;;3.62;100.00;101381.59;4978759;28;20038;-72
2022/05/04 02:45:48;;;;;;;8.13;3.67;;;;;;;3.64;100.00;101390.25;4979091;28;20073;-71
2022/05/04 02:48:13;;;;;;;10.97;3.40;;;;;;;3.62;100.00;101400.06;4979670;28;20076;-70
2022/05/04 02:50:39;;;;;;;5.47;3.03;;;;;;;3.56;100.00;101389.94;4977969;28;20041;-69
2022/05/04 02:53:05;;;;;;;8.47;2.80;;;;;;;3.53;100.00;101390.94;4987159;28;20121;-69
2022/05/04 02:55:31;;;;;;;11.43;3.60;;;;;;;3.52;100.00;101385.78;4977566;28;20472;-68
2022/05/04 02:57:56;;;;;;;13.20;4.07;;;;;;;3.55;100.00;101398.78;4978825;28;20034;-69
2022/05/04 03:00:21;;;;;;;10.37;4.00;;;;;;;3.56;100.00;101397.84;4984621;28;20056;-71
2022/05/04 03:02:47;;;;;;;10.97;5.40;;;;;;;3.52;100.00;101397.19;4978525;28;21119;-71
2022/05/04 03:05:14;;;;;;;11.10;4.43;;;;;;;3.52;100.00;101401.63;4985055;28;20088;-69
2022/05/04 03:07:39;;;;;;;19.23;4.63;;;;;;;3.48;100.00;101400.97;4977698;28;20089;-69
2022/05/04 03:10:06;;;;;;;9.70;3.83;;;;;;;3.45;100.00;101400.34;4980699;28;20515;-68
2022/05/04 03:12:31;;;;;;;9.73;3.60;;;;;;;3.44;100.00;101396.00;4976693;28;20042;-68
2022/05/04 03:14:57;;;;;;;16.33;4.97;;;;;;;3.42;100.00;101397.88;4978382;28;20018;-69
2022/05/04 03:17:22;;;;;;;9.90;3.53;;;;;;;3.32;100.00;101393.19;4978114;28;20049;-69
2022/05/04 03:19:48;;;;;;;12.23;4.60;;;;;;;3.38;100.00;101400.72;4978864;28;20057;-70
2022/05/04 03:22:13;;;;;;;16.63;5.13;;;;;;;3.36;100.00;101392.06;4978811;28;20091;-69
2022/05/04 03:24:39;;;;;;;11.63;4.50;;;;;;;3.43;100.00;101404.88;4975886;28;20412;-69
2022/05/04 03:27:05;;;;;;;21.50;6.28;;;;;;;3.57;100.00;101410.09;4986224;28;20041;-69
2022/05/04 03:29:30;;;;;;;;;;;;;;;3.73;100.00;101417.84;4976674;28;20027;-69
2022/05/04 03:31:56;;;;;;;16.73;5.80;;;;;;;3.65;100.00;101418.34;4979118;28;19913;-68
2022/05/04 03:34:22;;;;;;;16.40;5.50;;;;;;;3.57;100.00;101418.00;4978283;28;20072;-69
2022/05/04 03:36:47;;;;;;;12.95;5.60;;;;;;;3.51;100.00;101415.75;4978115;28;20133;-69
2022/05/04 03:39:13;;;;;;;21.33;7.23;;;;;;;3.50;100.00;101414.91;4985351;28;20113;-69
2022/05/04 03:41:39;;;;;;;19.23;6.45;;;;;;;3.50;100.00;101414.09;4976088;28;20042;-69
2022/05/04 03:44:05;;;;;;;13.10;5.30;;;;;;;3.52;100.00;101412.19;4984182;28;20054;-70
2022/05/04 03:46:44;;;;;;;14.82;6.05;;;;;;;3.47;100.00;101411.66;4984430;28;20695;-68
2022/05/04 03:49:10;;;;;;;22.30;6.15;;;;;;;3.45;100.00;101408.25;4976747;28;20415;-69
2022/05/04 03:51:35;;;;;;;17.92;5.32;;;;;;;3.46;100.00;101409.94;4980402;28;20037;-69
2022/05/04 03:54:00;;;;;;;18.17;5.90;;;;;;;3.46;100.00;101412.59;4979629;28;20399;-69
2022/05/04 03:56:26;;;;;;;12.83;5.93;;;;;;;3.51;100.00;101410.47;4987526;28;20038;-69
2022/05/04 03:58:51;;;;;;;22.60;6.87;;;;;;;3.40;100.00;101408.56;4983581;28;20061;-69
2022/05/04 04:01:20;;;;;;;34.13;7.03;;;;;;;3.54;100.00;101412.94;4984647;28;20022;-69
2022/05/04 04:03:46;;;;;;;20.35;6.53;;;;;;;3.56;100.00;101417.16;4977384;28;20286;-69
2022/05/04 04:06:11;;;;;;;18.45;6.07;;;;;;;3.53;100.00;101414.72;4978925;28;20040;-68
2022/05/04 04:08:37;;;;;;;11.52;5.32;;;;;;;3.63;100.00;101422.91;4976102;28;20195;-68
2022/05/04 04:11:03;;;;;;;19.40;7.07;;;;;;;3.58;100.00;101417.91;4979030;28;20070;-69
2022/05/04 04:13:29;;;;;;;16.90;7.13;;;;;;;3.60;100.00;101420.44;4974614;28;20042;-68
2022/05/04 04:15:55;;;;;;;18.17;7.15;;;;;;;3.67;100.00;101416.44;4977277;28;20037;-68
2022/05/04 04:18:22;;;;;;;16.25;6.97;;;;;;;3.69;100.00;101416.34;4973239;28;20030;-69
2022/05/04 04:23:32;;;;;;;15.77;6.80;;;;;;;3.73;100.00;101416.06;4979848;28;20037;-69
2022/05/04 04:25:58;;;;;;;16.95;6.35;;;;;;;3.75;100.00;101423.88;4982283;28;20074;-69
2022/05/04 04:28:23;;;;;;;20.27;7.10;;;;;;;4.06;100.00;101417.38;4985161;28;20073;-69
2022/05/04 04:30:49;;;;;;;18.07;5.93;;;;;;;4.07;100.00;101421.69;4983013;28;20475;-69
2022/05/04 04:33:14;;;;;;;18.05;6.32;;;;;;;4.02;100.00;101418.53;4985471;28;20042;-69
2022/05/04 04:35:40;;;;;;;18.37;6.27;;;;;;;4.15;100.00;101424.69;4978895;28;20023;-69
2022/05/04 04:38:07;;;;;;;16.13;6.07;;;;;;;4.30;100.00;101414.84;4981199;28;20038;-69
2022/05/04 04:40:33;;;;;;;12.30;5.50;;;;;;;4.43;100.00;101425.44;4983297;28;20839;-69
2022/05/04 04:43:00;;;;;;;13.95;5.80;;;;;;;4.55;100.00;101419.28;4996854;28;20128;-70
2022/05/04 04:45:26;;;;;;;14.30;5.13;;;;;;;4.73;100.00;101421.59;4979912;28;20034;-70
2022/05/04 04:47:52;;;;;;;17.00;5.50;;;;;;;4.88;100.00;101423.16;4977642;28;20062;-69
2022/05/04 04:50:18;;;;;;;19.97;5.47;;;;;;;5.00;100.00;101419.63;4977317;28;20089;-69
2022/05/04 04:52:43;;;;;;;16.63;4.67;;;;;;;5.10;100.00;101414.53;4975994;28;20041;-69
2022/05/04 04:55:09;;;;;;;18.37;6.63;;;;;;;5.17;100.00;101418.41;4978238;28;20395;-69
2022/05/04 04:57:34;;;;;;;18.15;4.97;;;;;;;5.34;100.00;101406.63;4972574;28;20298;-70
2022/05/04 05:00:00;;;;;;;11.87;5.87;;;;;;;5.46;100.00;101402.22;4971749;28;20033;-70
2022/05/04 05:02:26;;;;;;;17.42;6.05;;;;;;;5.50;100.00;101390.41;4980309;28;20045;-70
2022/05/04 05:04:51;;;;;;;13.38;5.25;;;;;;;5.61;100.00;101385.16;4977180;28;20038;-70
2022/05/04 05:07:16;;;;;;;18.97;4.17;;;;;;;5.70;100.00;101375.69;4968560;28;20035;-69
2022/05/04 05:09:42;;;;;;;19.63;5.77;;;;;;;5.77;100.00;101374.28;4984377;28;20038;-70
2022/05/04 05:12:08;;;;;;;11.73;5.13;;;;;;;6.12;100.00;101366.31;4978482;28;20037;-70
2022/05/04 05:17:17;;;;;;;15.48;4.15;;;;;;;6.75;100.00;101339.31;4976857;28;20234;-70
2022/05/04 05:19:43;;;;;;;12.75;4.07;;;;;;;6.84;100.00;101321.81;4977727;28;20035;-70
2022/05/04 05:22:08;;;;;;;14.40;4.45;;;;;;;6.90;100.00;101314.16;4977420;28;20030;-70
2022/05/04 05:24:34;;;;;;;15.70;3.40;;;;;;;7.15;100.00;101313.00;4989674;28;20065;-70
2022/05/04 05:26:59;;;;;;;11.70;3.60;;;;;;;7.19;100.00;101303.81;4977709;28;20459;-70
2022/05/04 05:29:24;;;;;;;11.93;3.07;;;;;;;7.09;100.00;101302.03;4979366;28;20026;-70
2022/05/04 05:31:50;;;;;;;9.17;4.30;;;;;;;7.72;100.00;101305.59;4976530;28;20125;-70
2022/05/04 05:34:15;;;;;;;12.50;3.43;;;;;;;7.82;100.00;101284.41;4976882;28;20085;-69
2022/05/04 05:36:40;;;;;;;11.37;3.63;;;;;;;7.86;100.00;101264.53;4974299;28;20112;-70
2022/05/04 05:39:06;;;;;;;15.70;4.67;;;;;;;7.64;100.00;101248.78;4981460;28;20034;-70
2022/05/04 05:41:31;;;;;;;15.67;5.47;;;;;;;7.47;100.00;101251.06;4983122;28;20038;-70
2022/05/04 05:43:56;;;;;;;12.70;3.40;;;;;;;7.42;100.00;101258.53;4984089;28;20034;-70
2022/05/04 05:46:22;;;;;;;18.23;4.10;;;;;;;7.31;100.00;101263.94;4983811;28;20049;-70
2022/05/04 05:48:47;;;;;;;9.27;3.40;;;;;;;7.44;100.00;101277.03;4976124;28;20038;-70
2022/05/04 05:51:13;;;;;;;9.60;3.77;;;;;;;7.53;100.00;101285.06;4976273;28;20042;-70
2022/05/04 05:53:38;;;;;;;20.15;4.50;;;;;;;7.22;100.00;101275.34;4975181;28;20445;-70
2022/05/04 05:56:04;;;;;;;12.40;3.93;;;;;;;7.40;100.00;101292.38;4978146;28;20030;-70
2022/05/04 05:58:30;;;;;;;14.27;4.00;;;;;;;7.38;100.00;101283.69;4978677;28;20443;-70
2022/05/04 06:00:55;;;;;;;11.33;4.27;;;;;;;7.56;100.00;101297.22;4991669;28;20034;-70
2022/05/04 06:03:22;;;;;;;14.13;4.53;;;;;;;7.61;100.00;101279.94;4976154;28;20026;-71
2022/05/04 06:05:47;;;;;;;14.00;4.22;;;;;;;7.75;100.00;101277.91;4980243;28;20030;-70
2022/05/04 06:08:13;;;;;;;18.65;4.45;;;;;;;8.03;100.00;101282.56;4983129;28;20034;-70
2022/05/04 06:10:39;;;;;;;19.47;4.27;;;;;;;8.48;100.00;101286.69;4973493;28;20057;-70
2022/05/04 06:13:06;;;;;;;11.73;3.55;;;;;;;9.29;100.00;101271.38;4981638;28;20022;-71
2022/05/04 06:15:32;;;;;;;17.15;4.68;;;;;;;9.13;100.00;101185.84;4985672;28;20114;-71
2022/05/04 06:17:57;;;;;;;14.52;4.07;;;;;;;8.89;100.00;101162.31;4984094;28;20022;-71
2022/05/04 06:20:23;;;;;;;7.40;3.70;;;;;;;8.92;100.00;101183.34;4979858;28;20076;-71
2022/05/04 06:22:49;;;;;;;11.32;3.50;;;;;;;10.32;100.00;101226.13;4975319;28;20045;-70
2022/05/04 06:25:15;;;;;;;13.57;4.05;;;;;;;10.56;95.23;101162.34;4985625;28;20049;-70
2022/05/04 06:27:40;;;;;;;13.80;4.13;;;;;;;11.66;87.07;101108.47;4984381;28;20030;-70
2022/05/04 06:35:36;;;;;;;13.30;3.33;;;;;;;13.22;70.01;100925.34;4958908;28;20058;-71
2022/05/04 06:38:01;;;;;;;12.00;2.93;;;;;;;12.91;67.87;100863.69;4976859;28;20399;-71
2022/05/04 06:40:26;;;;;;;9.07;3.23;;;;;;;13.53;66.26;100886.97;4984419;28;20653;-71
2022/05/04 06:42:52;;;;;;;6.43;2.63;;;;;;;14.27;65.13;100940.91;4987331;28;20062;-72
2022/05/04 06:45:17;;;;;;;9.13;2.30;;;;;;;14.45;61.96;100854.63;4983891;28;20046;-71
2022/05/04 06:47:43;;;;;;;8.70;2.50;;;;;;;13.95;61.31;100807.81;4987548;28;20093;-71
2022/05/04 06:50:10;;;;;;;9.35;2.40;;;;;;;13.12;62.68;100820.22;4987346;28;20038;-71
2022/05/04 06:52:37;;;;;;;14.98;3.00;;;;;;;14.20;62.49;100971.38;4984104;28;20065;-70
2022/05/04 06:55:04;;;;;;;7.90;2.38;;;;;;;14.25;60.70;100912.56;4988743;28;20931;-72
2022/05/04 06:57:29;;;;;;;6.18;2.10;;;;;;;14.89;59.48;100933.56;5003778;28;20037;-71
2022/05/04 06:59:55;;;;;;;6.93;2.28;;;;;;;14.36;58.97;100843.13;4970481;28;20038;-72
2022/05/04 07:02:21;;;;;;;14.02;3.00;;;;;;;13.67;59.15;100778.94;4986520;28;20109;-71
2022/05/04 07:04:46;;;;;;;12.60;2.77;;;;;;;13.29;60.97;100845.91;4979408;28;20162;-71
2022/05/04 07:07:11;;;;;;;12.13;3.93;;;;;;;12.61;62.16;100820.63;4988539;28;20084;-71
2022/05/04 07:09:37;;;;;;;7.63;3.20;;;;;;;12.40;64.92;100932.84;4983297;28;20059;-71
2022/05/04 07:12:04;;;;;;;9.13;2.20;;;;;;;12.35;66.03;100996.78;4988240;28;20558;-72
2022/05/04 07:14:29;;;;;;;10.55;2.78;;;;;;;12.62;66.22;101030.41;4986926;28;20292;-71
2022/05/04 07:16:55;;;;;;;9.80;3.37;;;;;;;12.43;63.76;100908.38;4984692;28;20030;-71
2022/05/04 07:19:20;;;;;;;6.33;1.90;;;;;;;12.71;64.39;101002.56;4988224;28;20077;-71
2022/05/04 07:21:45;;;;;;;10.23;2.40;;;;;;;12.34;64.83;100952.25;4987786;28;20680;-71
2022/05/04 07:24:11;;;;;;;11.07;2.90;;;;;;;12.90;64.35;101028.19;4987097;28;20416;-71
2022/05/04 07:26:38;;;;;;;6.45;2.35;;;;;;;13.16;61.77;100958.25;4980559;28;20062;-71
2022/05/04 07:29:03;;;;;;;;;;;;;;;13.70;60.93;101005.78;4984548;28;20045;-72
2022/05/04 07:31:28;;;;;;;;;;;;;;;13.43;59.86;100895.25;4985370;28;19909;-71
2022/05/04 07:33:54;;;;;;;10.90;2.47;;;;;;;13.45;60.78;100957.63;4998550;28;19922;-71
2022/05/04 07:36:19;;;;;;;8.90;2.53;;;;;;;13.52;60.52;100965.78;4982660;28;20030;-71
2022/05/04 07:38:44;;;;;;;8.90;2.20;;;;;;;13.14;61.72;100978.19;4980784;28;20038;-72
2022/05/04 07:43:54;;;;;;;10.35;2.40;;;;;;;14.06;58.56;100951.50;4986765;28;20034;-71
2022/05/04 07:46:19;;;;;;;4.13;2.53;;;;;;;13.19;59.69;100882.00;4985118;28;20033;-72
2022/05/04 07:48:44;;;;;;;10.60;3.10;;;;;;;13.19;59.91;100923.03;4985580;28;20042;-72
2022/05/04 07:51:11;;;;;;;11.17;3.03;;;;;;;13.39;60.32;100982.47;4978249;28;20034;-71
2022/05/04 07:53:37;;;;;;;12.05;2.50;;;;;;;13.27;60.30;100936.44;4975519;28;20484;-72
2022/05/04 07:56:03;;;;;;;5.70;2.22;;;;;;;13.23;60.58;100961.06;4986590;28;20018;-71
2022/05/04 07:58:28;;;;;;;7.97;2.00;;;;;;;13.46;60.61;101004.91;4987640;28;20072;-72
2022/05/04 08:06:21;;;;;;;9.75;3.00;;;;;;;14.74;56.43;100958.59;4986194;28;20412;-72
2022/05/04 08:08:47;;;;;;;8.20;2.57;;;;;;;14.48;55.50;100877.59;4987493;28;20026;-72
2022/05/04 08:11:12;;;;;;;7.20;2.67;;;;;;;14.40;54.38;100808.69;4986156;28;20072;-72
2022/05/04 08:13:37;;;;;;;3.90;2.20;;;;;;;14.66;53.73;100818.16;4983453;28;20031;-72
2022/05/04 08:16:04;;;;;;;4.43;2.50;;;;;;;14.94;52.83;100824.47;4979979;28;20040;-72
2022/05/04 08:18:30;;;;;;;7.78;3.45;;;;;;;15.18;53.69;100895.06;4980600;28;20026;-72
2022/05/04 08:20:55;;;;;;;9.40;2.75;;;;;;;14.92;53.09;100836.44;4986254;28;20030;-72
2022/05/04 08:23:21;;;;;;;9.40;2.87;;;;;;;15.73;54.08;101021.97;4986055;28;20479;-72
2022/05/04 08:25:47;;;;;;;7.63;2.63;;;;;;;15.99;51.51;100871.47;4993997;23;20046;-76
2022/05/04 08:28:13;;;;;;;5.37;2.33;;;;;;;14.72;52.89;100777.91;4993264;28;20105;-74
2022/05/04 08:30:39;;;;;;;5.32;2.00;;;;;;;15.03;53.42;100864.69;4962034;28;20050;-75
2022/05/04 08:33:05;;;;;;;6.35;2.30;;;;;;;13.92;55.28;100810.88;4988438;28;20022;-76
2022/05/04 08:35:31;;;;;;;8.55;2.22;;;;;;;15.28;53.93;100953.94;4988430;28;20088;-76
2022/05/04 08:37:56;;;;;;;8.93;3.20;;;;;;;15.32;51.83;100810.00;4970674;28;20096;-77
2022/05/04 08:40:21;;;;;;;6.37;2.67;;;;;;;14.32;52.91;100758.56;4967367;28;20037;-77
2022/05/04 08:42:47;;;;;;;9.63;2.50;;;;;;;14.17;54.57;100846.38;4976959;28;20030;-76
2022/05/04 08:45:14;;;;;;;10.03;3.00;;;;;;;14.46;53.26;100821.34;4959423;28;20039;-74
2022/05/04 08:47:41;;;;;;;8.38;2.45;;;;;;;15.00;54.05;100935.78;4974767;28;20113;-76
2022/05/04 08:50:09;;;;;;;11.00;2.92;;;;;;;13.89;53.62;100728.06;4958655;28;20153;-75
2022/05/04 08:52:37;;;;;;;5.32;2.42;;;;;;;14.87;52.94;100885.41;4975201;28;20029;-74
2022/05/04 08:55:05;;;;;;;7.43;2.50;;;;;;;15.69;50.72;100873.47;4978724;28;20496;-74
2022/05/04 08:57:31;;;;;;;5.68;2.25;;;;;;;16.33;49.68;100904.88;4965442;28;20106;-77
2022/05/04 08:59:57;;;;;;;;;;;;;;;15.59;50.68;100814.59;4976895;28;20073;-76
2022/05/04 09:02:22;;;;;;;;;;;;;;;15.58;50.83;100842.50;4966086;28;19913;-75
2022/05/04 09:04:47;;;;;;;6.67;2.20;;;;;;;14.26;51.49;100665.34;4975727;28;20049;-74
2022/05/04 09:07:26;;;;;;;8.60;2.43;;;;;;;14.50;52.73;100803.03;4967388;28;20076;-76
2022/05/04 09:09:53;;;;;;;8.38;2.00;;;;;;;14.21;53.26;100782.38;4976854;28;20264;-76
2022/05/04 09:12:18;;;;;;;4.50;1.90;;;;;;;13.86;53.21;100734.63;4958239;28;20042;-75
2022/05/04 09:14:44;;;;;;;12.13;3.63;;;;;;;13.72;54.94;100813.25;4958811;28;20046;-76
2022/05/04 09:17:14;;;;;;;9.50;2.47;;;;;;;13.70;53.93;100772.34;4955743;28;20080;-75
2022/05/04 09:20:45;;;;;;;6.78;2.20;;;;;;;13.02;55.80;100774.88;4944555;28;20130;-75
2022/05/04 09:22:37;;;;;;;6.18;2.28;;;;;;;14.32;54.42;100930.44;4967806;28;20466;-76
2022/05/04 09:25:02;;;;;;;8.30;2.20;;;;;;;14.50;53.71;100919.38;4961348;28;20059;-74
2022/05/04 09:27:29;;;;;;;4.00;1.90;;;;;;;16.01;50.54;100942.13;4978534;28;20035;-76
2022/05/04 09:29:59;;;;;;;5.25;1.98;;;;;;;16.63;47.95;100866.91;4976685;28;20323;-76
2022/05/04 09:32:29;;;;;;;10.60;2.60;;;;;;;15.99;46.97;100730.59;4965220;28;20038;-77
2022/05/04 09:34:55;;;;;;;6.07;2.03;;;;;;;15.63;49.10;100786.25;4977338;28;20048;-77
2022/05/04 09:45:37;;;;;;;7.85;2.10;;;;;;;15.77;49.64;100851.81;4977987;28;20035;-76
2022/05/04 09:48:03;;;;;;;8.50;2.05;;;;;;;15.71;48.73;100779.94;4978339;28;20022;-75
2022/05/04 09:50:29;;;;;;;5.07;1.77;;;;;;;16.32;48.59;100900.53;4952130;28;20114;-77
2022/05/04 09:52:57;;;;;;;7.07;2.33;;;;;;;15.56;45.93;100575.47;4968424;28;20125;-77
2022/05/04 09:55:25;;;;;;;6.38;1.60;;;;;;;16.36;46.13;100732.03;4982261;28;20077;-74
2022/05/04 09:57:53;;;;;;;5.97;1.70;;;;;;;17.12;45.97;100854.31;4952434;28;20032;-75
2022/05/04 10:00:21;;;;;;;6.32;1.88;;;;;;;17.53;46.23;100894.66;4968528;28;20034;-75
2022/05/04 10:02:48;;;;;;;5.13;1.70;;;;;;;16.15;46.13;100637.88;4950618;28;20034;-76
2022/05/04 10:05:16;;;;;;;7.10;2.10;;;;;;;15.72;46.89;100621.97;4985819;28;20137;-77
2022/05/04 10:07:42;;;;;;;7.38;1.90;;;;;;;15.56;48.55;100736.09;4968276;28;20054;-75
2022/05/04 10:10:09;;;;;;;3.00;1.65;;;;;;;15.59;48.84;100757.22;4978593;28;20073;-74
2022/05/04 10:12:39;;;;;;;6.20;1.75;;;;;;;16.61;48.69;100926.41;4968332;28;20084;-76
2022/05/04 10:15:10;;;;;;;6.53;2.17;;;;;;;18.40;47.30;101078.50;4956472;28;20030;-76
2022/05/04 10:17:46;;;;;;;10.48;1.80;;;;;;;17.13;45.12;100686.84;4972314;28;20034;-75
2022/05/04 10:20:22;;;;;;;6.88;1.70;;;;;;;16.20;47.87;100743.16;4971811;28;20042;-75
2022/05/04 10:22:54;;;;;;;;;;;;;;;16.26;48.89;100812.41;4972258;28;20035;-76
2022/05/04 10:25:22;;;;;;;8.00;2.33;;;;;;;15.67;48.88;100708.66;4972107;28;19914;-77
2022/05/04 10:27:48;;;;;;;5.97;2.40;;;;;;;14.93;49.29;100606.94;4971960;28;20113;-75
2022/05/04 10:30:31;;;;;;;11.18;2.85;;;;;;;14.62;51.96;100766.63;4972136;28;20586;-75
2022/05/04 10:33:08;;;;;;;4.90;2.90;;;;;;;14.29;51.07;100662.28;4971647;28;20454;-76
2022/05/04 10:35:33;;;;;;;5.35;2.00;;;;;;;13.86;51.71;100648.75;4989199;28;20042;-74
2022/05/04 10:37:59;;;;;;;6.10;2.13;;;;;;;13.94;51.83;100678.16;4984982;28;20032;-76
2022/05/04 10:40:30;;;;;;;8.97;2.50;;;;;;;13.83;51.79;100665.19;4971311;28;20038;-76
2022/05/04 10:43:01;;;;;;;7.38;1.80;;;;;;;13.68;52.05;100656.34;4955057;28;20026;-75
2022/05/04 10:45:41;;;;;;;9.40;2.13;;;;;;;13.62;55.09;100796.56;4989347;28;20038;-75
2022/05/04 10:48:09;;;;;;;6.03;2.00;;;;;;;13.40;55.32;100809.81;4989218;28;20042;-74
2022/05/04 10:51:03;;;;;;;8.60;2.40;;;;;;;14.01;54.25;100855.41;4971751;28;20030;-75
2022/05/04 10:53:29;;;;;;;8.82;2.72;;;;;;;15.02;51.79;100888.06;4986578;28;20046;-75
2022/05/04 10:55:54;;;;;;;3.63;1.73;;;;;;;15.95;49.80;100901.69;4955609;28;20509;-75
2022/05/04 10:58:38;;;;;;;8.38;1.90;;;;;;;15.81;49.46;100836.13;4955450;28;20032;-76
2022/05/04 11:01:26;;;;;;;8.65;1.92;;;;;;;15.44;47.90;100675.78;4981597;28;20439;-76
2022/05/04 11:03:56;;;;;;;18.77;2.22;;;;;;;15.99;48.08;100798.78;4971306;28;20037;-74
2022/05/04 11:06:30;;;;;;;5.45;2.10;;;;;;;15.80;47.82;100754.53;4989271;28;20053;-77
2022/05/04 11:09:02;;;;;;;6.00;1.95;;;;;;;16.00;47.71;100775.38;4971257;28;20739;-76
2022/05/04 11:11:27;;;;;;;13.55;2.40;;;;;;;16.55;47.03;100832.88;4988879;28;20161;-76
2022/05/04 11:13:54;;;;;;;3.60;1.50;;;;;;;17.26;45.74;100878.41;4988836;28;20113;-75
2022/05/04 11:16:21;;;;;;;8.30;1.80;;;;;;;17.88;44.92;100859.41;4967882;28;20166;-76
2022/05/04 11:18:48;;;;;;;8.23;2.78;;;;;;;17.29;44.31;100697.22;4969341;28;20114;-75
2022/05/04 11:21:15;;;;;;;19.55;2.85;;;;;;;16.50;46.74;100726.72;4970988;28;20046;-75
2022/05/04 11:23:46;;;;;;;5.65;2.13;;;;;;;16.27;47.52;100733.22;4988407;28;20027;-77
2022/05/04 11:26:22;;;;;;;9.98;2.40;;;;;;;17.13;46.91;100856.78;4987759;28;20049;-75
2022/05/04 11:28:48;;;;;;;5.20;1.70;;;;;;;17.32;46.25;100849.75;4987902;28;20104;-76
2022/05/04 11:31:14;;;;;;;9.52;2.45;;;;;;;16.12;46.52;100627.53;4988177;28;20027;-75
2022/05/04 11:33:41;;;;;;;5.57;1.92;;;;;;;16.11;47.74;100714.72;4970977;28;20104;-76
2022/05/04 11:36:07;;;;;;;7.65;2.13;;;;;;;16.43;47.39;100770.63;4971048;28;20451;-74
2022/05/04 11:38:32;;;;;;;5.13;1.83;;;;;;;15.87;46.34;100592.22;4971422;28;20117;-75
2022/05/04 11:41:00;;;;;;;11.63;2.30;;;;;;;15.67;48.08;100664.78;4988249;28;20023;-76
2022/05/04 11:43:27;;;;;;;9.48;2.10;;;;;;;15.98;47.67;100716.31;4970842;28;20101;-74
2022/05/04 11:45:54;;;;;;;10.60;2.00;;;;;;;15.07;48.23;100587.19;4970913;28;20032;-76
2022/05/04 11:48:20;;;;;;;4.43;2.05;;;;;;;15.10;48.62;100645.97;4970254;28;20054;-75
2022/05/04 11:50:46;;;;;;;4.82;2.55;;;;;;;15.41;48.67;100706.59;4969430;28;20026;-76
2022/05/04 11:53:12;;;;;;;4.15;1.73;;;;;;;15.73;47.66;100715.13;4966742;28;20141;-73